sensor_id;sensor_type;location;lat;lon;timestamp;P1;durP1;ratioP1;P2;durP2;ratioP2
2434;SDS011;1228;51.022;6.764;2023-05-20T00:00:09;5.70;;;5.40;;
2434;SDS011;1228;51.022;6.764;2023-05-20T00:02:36;6.00;;;5.60;;
2434;SDS011;1228;51.022;6.764;2023-05-20T00:05:01;5.07;;;4.50;;
2434;SDS011;1228;51.022;6.764;2023-05-20T00:07:27;5.67;;;5.13;;
2434;SDS011;1228;51.022;6.764;2023-05-20T00:09:53;5.60;;;5.20;;
2434;SDS011;1228;51.022;6.764;2023-05-20T00:12:18;5.80;;;5.40;;
2434;SDS011;1228;51.022;6.764;2023-05-20T00:14:44;4.90;;;4.60;;
2434;SDS011;1228;51.022;6.764;2023-05-20T00:17:10;6.97;;;4.10;;
2434;SDS011;1228;51.022;6.764;2023-05-20T00:19:35;4.60;;;4.30;;
2434;SDS011;1228;51.022;6.764;2023-05-20T00:22:01;4.63;;;4.33;;
2434;SDS011;1228;51.022;6.764;2023-05-20T00:24:26;4.47;;;4.27;;
2434;SDS011;1228;51.022;6.764;2023-05-20T00:26:52;5.07;;;4.77;;
2434;SDS011;1228;51.022;6.764;2023-05-20T00:29:19;5.13;;;4.80;;
2434;SDS011;1228;51.022;6.764;2023-05-20T00:31:45;5.00;;;4.60;;
2434;SDS011;1228;51.022;6.764;2023-05-20T00:34:11;5.23;;;4.83;;
2434;SDS011;1228;51.022;6.764;2023-05-20T00:36:36;4.70;;;4.50;;
2434;SDS011;1228;51.022;6.764;2023-05-20T00:39:02;4.80;;;4.50;;
2434;SDS011;1228;51.022;6.764;2023-05-20T00:41:28;4.87;;;4.47;;
2434;SDS011;1228;51.022;6.764;2023-05-20T00:43:54;5.23;;;4.83;;
2434;SDS011;1228;51.022;6.764;2023-05-20T00:46:20;5.47;;;5.10;;
2434;SDS011;1228;51.022;6.764;2023-05-20T00:48:46;5.83;;;5.43;;
2434;SDS011;1228;51.022;6.764;2023-05-20T00:51:12;5.90;;;5.33;;
2434;SDS011;1228;51.022;6.764;2023-05-20T00:53:38;5.30;;;5.00;;
2434;SDS011;1228;51.022;6.764;2023-05-20T00:56:05;4.77;;;4.37;;
2434;SDS011;1228;51.022;6.764;2023-05-20T00:58:32;5.43;;;5.03;;
2434;SDS011;1228;51.022;6.764;2023-05-20T01:01:00;4.90;;;4.60;;
2434;SDS011;1228;51.022;6.764;2023-05-20T01:03:27;5.43;;;4.93;;
2434;SDS011;1228;51.022;6.764;2023-05-20T01:05:53;6.67;;;5.17;;
2434;SDS011;1228;51.022;6.764;2023-05-20T01:08:19;5.33;;;4.93;;
2434;SDS011;1228;51.022;6.764;2023-05-20T01:10:45;5.83;;;5.20;;
2434;SDS011;1228;51.022;6.764;2023-05-20T01:13:16;5.80;;;5.40;;
2434;SDS011;1228;51.022;6.764;2023-05-20T01:15:45;5.60;;;5.20;;
2434;SDS011;1228;51.022;6.764;2023-05-20T01:18:13;5.80;;;5.30;;
2434;SDS011;1228;51.022;6.764;2023-05-20T01:20:48;5.63;;;5.17;;
2434;SDS011;1228;51.022;6.764;2023-05-20T01:23:17;5.93;;;5.43;;
2434;SDS011;1228;51.022;6.764;2023-05-20T01:25:43;6.07;;;5.67;;
2434;SDS011;1228;51.022;6.764;2023-05-20T01:28:08;5.90;;;5.50;;
2434;SDS011;1228;51.022;6.764;2023-05-20T01:30:43;5.53;;;5.23;;
2434;SDS011;1228;51.022;6.764;2023-05-20T01:33:14;5.70;;;5.13;;
2434;SDS011;1228;51.022;6.764;2023-05-20T01:35:44;6.07;;;5.67;;
2434;SDS011;1228;51.022;6.764;2023-05-20T01:38:11;7.53;;;5.70;;
2434;SDS011;1228;51.022;6.764;2023-05-20T01:40:37;6.30;;;5.50;;
2434;SDS011;1228;51.022;6.764;2023-05-20T01:43:04;6.47;;;5.97;;
2434;SDS011;1228;51.022;6.764;2023-05-20T01:45:30;6.23;;;5.83;;
2434;SDS011;1228;51.022;6.764;2023-05-20T01:47:56;5.60;;;5.10;;
2434;SDS011;1228;51.022;6.764;2023-05-20T01:50:21;5.77;;;5.37;;
2434;SDS011;1228;51.022;6.764;2023-05-20T01:52:47;6.47;;;6.07;;
2434;SDS011;1228;51.022;6.764;2023-05-20T01:55:13;6.57;;;5.97;;
2434;SDS011;1228;51.022;6.764;2023-05-20T01:57:38;7.27;;;6.77;;
2434;SDS011;1228;51.022;6.764;2023-05-20T02:00:04;6.27;;;5.87;;
2434;SDS011;1228;51.022;6.764;2023-05-20T02:02:30;5.83;;;5.53;;
2434;SDS011;1228;51.022;6.764;2023-05-20T02:04:56;6.17;;;5.67;;
2434;SDS011;1228;51.022;6.764;2023-05-20T02:07:21;5.97;;;5.57;;
2434;SDS011;1228;51.022;6.764;2023-05-20T02:09:47;5.97;;;5.47;;
2434;SDS011;1228;51.022;6.764;2023-05-20T02:12:13;6.53;;;6.07;;
2434;SDS011;1228;51.022;6.764;2023-05-20T02:14:45;6.40;;;6.00;;
2434;SDS011;1228;51.022;6.764;2023-05-20T02:17:12;6.23;;;5.80;;
2434;SDS011;1228;51.022;6.764;2023-05-20T02:19:40;6.37;;;5.93;;
2434;SDS011;1228;51.022;6.764;2023-05-20T02:22:06;6.80;;;6.30;;
2434;SDS011;1228;51.022;6.764;2023-05-20T02:24:31;6.53;;;5.93;;
2434;SDS011;1228;51.022;6.764;2023-05-20T02:26:57;7.17;;;6.47;;
2434;SDS011;1228;51.022;6.764;2023-05-20T02:29:23;6.77;;;6.07;;
2434;SDS011;1228;51.022;6.764;2023-05-20T02:31:49;7.07;;;6.37;;
2434;SDS011;1228;51.022;6.764;2023-05-20T02:34:16;7.17;;;6.77;;
2434;SDS011;1228;51.022;6.764;2023-05-20T02:36:42;7.43;;;6.83;;
2434;SDS011;1228;51.022;6.764;2023-05-20T02:39:08;7.50;;;6.90;;
2434;SDS011;1228;51.022;6.764;2023-05-20T02:41:34;6.70;;;6.20;;
2434;SDS011;1228;51.022;6.764;2023-05-20T02:44:00;7.17;;;6.77;;
2434;SDS011;1228;51.022;6.764;2023-05-20T02:46:25;6.60;;;6.10;;
2434;SDS011;1228;51.022;6.764;2023-05-20T02:48:51;7.40;;;6.97;;
2434;SDS011;1228;51.022;6.764;2023-05-20T02:51:17;7.40;;;6.90;;
2434;SDS011;1228;51.022;6.764;2023-05-20T02:53:43;7.40;;;6.90;;
2434;SDS011;1228;51.022;6.764;2023-05-20T02:56:09;7.50;;;7.00;;
2434;SDS011;1228;51.022;6.764;2023-05-20T02:58:35;6.03;;;5.73;;
2434;SDS011;1228;51.022;6.764;2023-05-20T03:01:01;6.40;;;5.90;;
2434;SDS011;1228;51.022;6.764;2023-05-20T03:03:27;7.13;;;6.53;;
2434;SDS011;1228;51.022;6.764;2023-05-20T03:05:53;6.57;;;6.17;;
2434;SDS011;1228;51.022;6.764;2023-05-20T03:08:20;6.20;;;5.80;;
2434;SDS011;1228;51.022;6.764;2023-05-20T03:10:47;6.63;;;6.20;;
2434;SDS011;1228;51.022;6.764;2023-05-20T03:13:13;6.77;;;6.27;;
2434;SDS011;1228;51.022;6.764;2023-05-20T03:15:42;7.00;;;6.40;;
2434;SDS011;1228;51.022;6.764;2023-05-20T03:18:09;6.93;;;6.23;;
2434;SDS011;1228;51.022;6.764;2023-05-20T03:20:36;7.73;;;6.97;;
2434;SDS011;1228;51.022;6.764;2023-05-20T03:23:02;7.93;;;7.33;;
2434;SDS011;1228;51.022;6.764;2023-05-20T03:25:28;8.27;;;7.87;;
2434;SDS011;1228;51.022;6.764;2023-05-20T03:27:54;8.37;;;7.87;;
2434;SDS011;1228;51.022;6.764;2023-05-20T03:30:22;8.53;;;7.70;;
2434;SDS011;1228;51.022;6.764;2023-05-20T03:32:48;7.83;;;7.23;;
2434;SDS011;1228;51.022;6.764;2023-05-20T03:35:13;7.80;;;7.30;;
2434;SDS011;1228;51.022;6.764;2023-05-20T03:37:39;7.73;;;7.17;;
2434;SDS011;1228;51.022;6.764;2023-05-20T03:40:05;7.63;;;7.13;;
2434;SDS011;1228;51.022;6.764;2023-05-20T03:42:34;8.37;;;7.57;;
2434;SDS011;1228;51.022;6.764;2023-05-20T03:45:00;7.90;;;7.20;;
2434;SDS011;1228;51.022;6.764;2023-05-20T03:47:26;7.73;;;7.13;;
2434;SDS011;1228;51.022;6.764;2023-05-20T03:49:52;8.50;;;7.90;;
2434;SDS011;1228;51.022;6.764;2023-05-20T03:52:18;7.73;;;7.23;;
2434;SDS011;1228;51.022;6.764;2023-05-20T03:54:43;8.10;;;7.50;;
2434;SDS011;1228;51.022;6.764;2023-05-20T03:57:09;7.80;;;7.20;;
2434;SDS011;1228;51.022;6.764;2023-05-20T03:59:35;8.13;;;7.63;;
2434;SDS011;1228;51.022;6.764;2023-05-20T04:02:01;8.63;;;8.13;;
2434;SDS011;1228;51.022;6.764;2023-05-20T04:04:27;8.83;;;8.07;;
2434;SDS011;1228;51.022;6.764;2023-05-20T04:06:54;7.70;;;7.20;;
2434;SDS011;1228;51.022;6.764;2023-05-20T04:09:20;7.37;;;6.77;;
2434;SDS011;1228;51.022;6.764;2023-05-20T04:11:46;7.00;;;6.50;;
2434;SDS011;1228;51.022;6.764;2023-05-20T04:14:11;7.97;;;7.40;;
2434;SDS011;1228;51.022;6.764;2023-05-20T04:16:37;7.67;;;6.97;;
2434;SDS011;1228;51.022;6.764;2023-05-20T04:19:03;6.93;;;6.20;;
2434;SDS011;1228;51.022;6.764;2023-05-20T04:21:29;6.30;;;5.90;;
2434;SDS011;1228;51.022;6.764;2023-05-20T04:23:55;6.23;;;5.83;;
2434;SDS011;1228;51.022;6.764;2023-05-20T04:26:21;6.67;;;6.13;;
2434;SDS011;1228;51.022;6.764;2023-05-20T04:28:47;6.03;;;5.53;;
2434;SDS011;1228;51.022;6.764;2023-05-20T04:31:13;6.17;;;5.60;;
2434;SDS011;1228;51.022;6.764;2023-05-20T04:33:39;6.90;;;6.40;;
2434;SDS011;1228;51.022;6.764;2023-05-20T04:36:06;6.10;;;5.60;;
2434;SDS011;1228;51.022;6.764;2023-05-20T04:38:33;6.60;;;6.00;;
2434;SDS011;1228;51.022;6.764;2023-05-20T04:40:59;6.43;;;5.50;;
2434;SDS011;1228;51.022;6.764;2023-05-20T04:43:26;6.30;;;5.80;;
2434;SDS011;1228;51.022;6.764;2023-05-20T04:45:54;6.60;;;5.57;;
2434;SDS011;1228;51.022;6.764;2023-05-20T04:48:20;6.17;;;5.77;;
2434;SDS011;1228;51.022;6.764;2023-05-20T04:50:46;5.67;;;5.37;;
2434;SDS011;1228;51.022;6.764;2023-05-20T04:53:16;6.00;;;5.40;;
2434;SDS011;1228;51.022;6.764;2023-05-20T04:55:42;6.60;;;5.87;;
2434;SDS011;1228;51.022;6.764;2023-05-20T04:58:09;6.27;;;5.87;;
2434;SDS011;1228;51.022;6.764;2023-05-20T05:00:41;6.20;;;5.70;;
2434;SDS011;1228;51.022;6.764;2023-05-20T05:03:10;5.30;;;4.90;;
2434;SDS011;1228;51.022;6.764;2023-05-20T05:05:37;6.13;;;5.50;;
2434;SDS011;1228;51.022;6.764;2023-05-20T05:08:04;5.90;;;5.40;;
2434;SDS011;1228;51.022;6.764;2023-05-20T05:10:31;5.77;;;5.37;;
2434;SDS011;1228;51.022;6.764;2023-05-20T05:12:57;5.90;;;5.50;;
2434;SDS011;1228;51.022;6.764;2023-05-20T05:15:22;5.90;;;5.40;;
2434;SDS011;1228;51.022;6.764;2023-05-20T05:17:49;5.87;;;5.47;;
2434;SDS011;1228;51.022;6.764;2023-05-20T05:20:15;5.23;;;4.90;;
2434;SDS011;1228;51.022;6.764;2023-05-20T05:22:40;5.40;;;4.90;;
2434;SDS011;1228;51.022;6.764;2023-05-20T05:25:07;5.07;;;4.70;;
2434;SDS011;1228;51.022;6.764;2023-05-20T05:27:33;5.70;;;5.30;;
2434;SDS011;1228;51.022;6.764;2023-05-20T05:30:00;5.73;;;5.23;;
2434;SDS011;1228;51.022;6.764;2023-05-20T05:32:26;5.77;;;5.37;;
2434;SDS011;1228;51.022;6.764;2023-05-20T05:34:52;5.50;;;5.00;;
2434;SDS011;1228;51.022;6.764;2023-05-20T05:37:17;5.80;;;5.30;;
2434;SDS011;1228;51.022;6.764;2023-05-20T05:39:43;5.30;;;5.00;;
2434;SDS011;1228;51.022;6.764;2023-05-20T05:42:09;5.50;;;4.97;;
2434;SDS011;1228;51.022;6.764;2023-05-20T05:44:34;5.90;;;5.30;;
2434;SDS011;1228;51.022;6.764;2023-05-20T05:47:00;5.90;;;4.97;;
2434;SDS011;1228;51.022;6.764;2023-05-20T05:49:25;4.57;;;4.27;;
2434;SDS011;1228;51.022;6.764;2023-05-20T05:51:51;5.10;;;4.70;;
2434;SDS011;1228;51.022;6.764;2023-05-20T05:54:17;5.83;;;5.23;;
2434;SDS011;1228;51.022;6.764;2023-05-20T05:56:44;4.60;;;4.30;;
2434;SDS011;1228;51.022;6.764;2023-05-20T05:59:10;4.73;;;4.43;;
2434;SDS011;1228;51.022;6.764;2023-05-20T06:01:35;4.60;;;4.30;;
2434;SDS011;1228;51.022;6.764;2023-05-20T06:04:01;5.67;;;4.70;;
2434;SDS011;1228;51.022;6.764;2023-05-20T06:06:27;4.83;;;4.43;;
2434;SDS011;1228;51.022;6.764;2023-05-20T06:08:52;4.90;;;4.20;;
2434;SDS011;1228;51.022;6.764;2023-05-20T06:11:18;5.07;;;4.43;;
2434;SDS011;1228;51.022;6.764;2023-05-20T06:13:44;4.37;;;4.07;;
2434;SDS011;1228;51.022;6.764;2023-05-20T06:16:10;4.40;;;4.10;;
2434;SDS011;1228;51.022;6.764;2023-05-20T06:18:36;4.70;;;4.30;;
2434;SDS011;1228;51.022;6.764;2023-05-20T06:21:01;4.37;;;4.07;;
2434;SDS011;1228;51.022;6.764;2023-05-20T06:23:27;4.47;;;4.17;;
2434;SDS011;1228;51.022;6.764;2023-05-20T06:25:56;4.20;;;4.00;;
2434;SDS011;1228;51.022;6.764;2023-05-20T06:28:23;5.00;;;4.60;;
2434;SDS011;1228;51.022;6.764;2023-05-20T06:30:49;6.80;;;5.60;;
2434;SDS011;1228;51.022;6.764;2023-05-20T06:33:14;5.20;;;4.83;;
2434;SDS011;1228;51.022;6.764;2023-05-20T06:35:41;4.93;;;4.53;;
2434;SDS011;1228;51.022;6.764;2023-05-20T06:38:07;5.70;;;5.20;;
2434;SDS011;1228;51.022;6.764;2023-05-20T06:40:32;5.60;;;5.23;;
2434;SDS011;1228;51.022;6.764;2023-05-20T06:42:58;5.03;;;4.73;;
2434;SDS011;1228;51.022;6.764;2023-05-20T06:45:24;4.93;;;4.63;;
2434;SDS011;1228;51.022;6.764;2023-05-20T06:47:49;4.80;;;4.50;;
2434;SDS011;1228;51.022;6.764;2023-05-20T06:50:17;13.82;;;4.90;;
2434;SDS011;1228;51.022;6.764;2023-05-20T06:52:42;5.20;;;4.80;;
2434;SDS011;1228;51.022;6.764;2023-05-20T06:55:08;5.53;;;5.03;;
2434;SDS011;1228;51.022;6.764;2023-05-20T06:57:34;5.43;;;4.97;;
2434;SDS011;1228;51.022;6.764;2023-05-20T07:00:00;6.10;;;4.53;;
2434;SDS011;1228;51.022;6.764;2023-05-20T07:02:25;4.50;;;4.20;;
2434;SDS011;1228;51.022;6.764;2023-05-20T07:04:51;5.20;;;4.70;;
2434;SDS011;1228;51.022;6.764;2023-05-20T07:07:16;5.10;;;4.70;;
2434;SDS011;1228;51.022;6.764;2023-05-20T07:09:42;4.80;;;4.50;;
2434;SDS011;1228;51.022;6.764;2023-05-20T07:12:07;4.40;;;4.10;;
2434;SDS011;1228;51.022;6.764;2023-05-20T07:14:33;5.20;;;4.40;;
2434;SDS011;1228;51.022;6.764;2023-05-20T07:16:59;5.10;;;4.47;;
2434;SDS011;1228;51.022;6.764;2023-05-20T07:19:24;5.23;;;4.60;;
2434;SDS011;1228;51.022;6.764;2023-05-20T07:21:50;4.70;;;4.40;;
2434;SDS011;1228;51.022;6.764;2023-05-20T07:24:15;4.57;;;4.27;;
2434;SDS011;1228;51.022;6.764;2023-05-20T07:26:41;4.80;;;4.33;;
2434;SDS011;1228;51.022;6.764;2023-05-20T07:29:07;5.13;;;4.73;;
2434;SDS011;1228;51.022;6.764;2023-05-20T07:31:34;5.37;;;4.97;;
2434;SDS011;1228;51.022;6.764;2023-05-20T07:34:00;4.37;;;4.00;;
2434;SDS011;1228;51.022;6.764;2023-05-20T07:36:26;5.00;;;4.60;;
2434;SDS011;1228;51.022;6.764;2023-05-20T07:38:52;5.93;;;5.33;;
2434;SDS011;1228;51.022;6.764;2023-05-20T07:41:18;7.07;;;6.47;;
2434;SDS011;1228;51.022;6.764;2023-05-20T07:43:45;5.15;;;4.20;;
2434;SDS011;1228;51.022;6.764;2023-05-20T07:46:10;5.53;;;4.65;;
2434;SDS011;1228;51.022;6.764;2023-05-20T07:48:36;6.05;;;4.70;;
2434;SDS011;1228;51.022;6.764;2023-05-20T07:51:02;5.00;;;4.60;;
2434;SDS011;1228;51.022;6.764;2023-05-20T07:53:28;4.80;;;4.40;;
2434;SDS011;1228;51.022;6.764;2023-05-20T07:55:53;4.63;;;4.22;;
2434;SDS011;1228;51.022;6.764;2023-05-20T07:58:20;5.15;;;4.75;;
2434;SDS011;1228;51.022;6.764;2023-05-20T08:00:46;5.45;;;4.95;;
2434;SDS011;1228;51.022;6.764;2023-05-20T08:03:12;5.40;;;4.80;;
2434;SDS011;1228;51.022;6.764;2023-05-20T08:05:38;5.93;;;5.43;;
2434;SDS011;1228;51.022;6.764;2023-05-20T08:08:05;5.53;;;5.13;;
2434;SDS011;1228;51.022;6.764;2023-05-20T08:10:30;4.75;;;4.45;;
2434;SDS011;1228;51.022;6.764;2023-05-20T08:12:57;5.85;;;5.35;;
2434;SDS011;1228;51.022;6.764;2023-05-20T08:15:23;10.75;;;5.28;;
2434;SDS011;1228;51.022;6.764;2023-05-20T08:17:48;6.45;;;5.22;;
2434;SDS011;1228;51.022;6.764;2023-05-20T08:20:14;4.82;;;4.45;;
2434;SDS011;1228;51.022;6.764;2023-05-20T08:22:40;5.45;;;5.10;;
2434;SDS011;1228;51.022;6.764;2023-05-20T08:25:07;5.13;;;4.72;;
2434;SDS011;1228;51.022;6.764;2023-05-20T08:27:36;9.60;;;9.10;;
2434;SDS011;1228;51.022;6.764;2023-05-20T08:30:04;5.80;;;4.97;;
2434;SDS011;1228;51.022;6.764;2023-05-20T08:32:33;5.20;;;4.80;;
2434;SDS011;1228;51.022;6.764;2023-05-20T08:34:59;4.78;;;4.32;;
2434;SDS011;1228;51.022;6.764;2023-05-20T08:37:26;6.85;;;3.95;;
2434;SDS011;1228;51.022;6.764;2023-05-20T08:39:53;4.72;;;4.32;;
2434;SDS011;1228;51.022;6.764;2023-05-20T08:42:20;4.43;;;4.05;;
2434;SDS011;1228;51.022;6.764;2023-05-20T08:44:50;4.97;;;4.57;;
2434;SDS011;1228;51.022;6.764;2023-05-20T08:47:20;4.40;;;4.00;;
2434;SDS011;1228;51.022;6.764;2023-05-20T08:49:47;5.43;;;4.93;;
2434;SDS011;1228;51.022;6.764;2023-05-20T08:52:13;8.60;;;4.63;;
2434;SDS011;1228;51.022;6.764;2023-05-20T08:54:45;5.93;;;5.18;;
2434;SDS011;1228;51.022;6.764;2023-05-20T08:57:13;4.97;;;4.47;;
2434;SDS011;1228;51.022;6.764;2023-05-20T08:59:43;5.25;;;4.85;;
2434;SDS011;1228;51.022;6.764;2023-05-20T09:02:10;5.55;;;4.80;;
2434;SDS011;1228;51.022;6.764;2023-05-20T09:04:37;4.10;;;3.78;;
2434;SDS011;1228;51.022;6.764;2023-05-20T09:07:03;4.35;;;3.95;;
2434;SDS011;1228;51.022;6.764;2023-05-20T09:09:29;5.47;;;4.93;;
2434;SDS011;1228;51.022;6.764;2023-05-20T09:11:57;5.43;;;4.93;;
2434;SDS011;1228;51.022;6.764;2023-05-20T09:14:24;5.20;;;4.80;;
2434;SDS011;1228;51.022;6.764;2023-05-20T09:16:51;4.72;;;4.43;;
2434;SDS011;1228;51.022;6.764;2023-05-20T09:19:16;5.20;;;4.80;;
2434;SDS011;1228;51.022;6.764;2023-05-20T09:21:45;5.53;;;4.95;;
2434;SDS011;1228;51.022;6.764;2023-05-20T09:24:11;4.93;;;4.43;;
2434;SDS011;1228;51.022;6.764;2023-05-20T09:26:36;4.85;;;4.55;;
2434;SDS011;1228;51.022;6.764;2023-05-20T09:29:02;4.50;;;4.20;;
2434;SDS011;1228;51.022;6.764;2023-05-20T09:31:32;4.28;;;3.97;;
2434;SDS011;1228;51.022;6.764;2023-05-20T09:34:01;5.40;;;5.00;;
2434;SDS011;1228;51.022;6.764;2023-05-20T09:36:28;4.93;;;4.53;;
2434;SDS011;1228;51.022;6.764;2023-05-20T09:38:59;4.88;;;4.47;;
2434;SDS011;1228;51.022;6.764;2023-05-20T09:41:29;4.40;;;4.10;;
2434;SDS011;1228;51.022;6.764;2023-05-20T09:44:02;10.38;;;5.38;;
2434;SDS011;1228;51.022;6.764;2023-05-20T09:46:31;5.20;;;4.80;;
2434;SDS011;1228;51.022;6.764;2023-05-20T09:48:58;4.45;;;4.10;;
2434;SDS011;1228;51.022;6.764;2023-05-20T09:51:24;5.18;;;4.78;;
2434;SDS011;1228;51.022;6.764;2023-05-20T09:53:51;5.38;;;4.97;;
2434;SDS011;1228;51.022;6.764;2023-05-20T09:56:19;5.18;;;4.78;;
2434;SDS011;1228;51.022;6.764;2023-05-20T09:58:46;6.20;;;5.15;;
2434;SDS011;1228;51.022;6.764;2023-05-20T10:01:13;6.55;;;5.93;;
2434;SDS011;1228;51.022;6.764;2023-05-20T10:03:39;7.90;;;7.20;;
2434;SDS011;1228;51.022;6.764;2023-05-20T10:08:36;5.70;;;5.28;;
2434;SDS011;1228;51.022;6.764;2023-05-20T10:21:21;5.13;;;4.55;;
2434;SDS011;1228;51.022;6.764;2023-05-20T10:23:48;6.15;;;5.65;;
2434;SDS011;1228;51.022;6.764;2023-05-20T10:26:15;5.10;;;4.80;;
2434;SDS011;1228;51.022;6.764;2023-05-20T10:28:41;5.70;;;5.20;;
2434;SDS011;1228;51.022;6.764;2023-05-20T10:31:14;5.47;;;5.07;;
2434;SDS011;1228;51.022;6.764;2023-05-20T10:33:45;4.97;;;4.55;;
2434;SDS011;1228;51.022;6.764;2023-05-20T10:36:21;5.53;;;5.03;;
2434;SDS011;1228;51.022;6.764;2023-05-20T10:38:54;5.53;;;5.10;;
2434;SDS011;1228;51.022;6.764;2023-05-20T10:41:22;5.75;;;5.30;;
2434;SDS011;1228;51.022;6.764;2023-05-20T10:44:02;5.50;;;5.00;;
2434;SDS011;1228;51.022;6.764;2023-05-20T10:46:29;6.38;;;5.85;;
2434;SDS011;1228;51.022;6.764;2023-05-20T10:48:55;5.78;;;5.32;;
2434;SDS011;1228;51.022;6.764;2023-05-20T10:51:22;8.75;;;6.90;;
2434;SDS011;1228;51.022;6.764;2023-05-20T10:53:50;7.38;;;5.38;;
2434;SDS011;1228;51.022;6.764;2023-05-20T10:56:21;7.68;;;7.18;;
2434;SDS011;1228;51.022;6.764;2023-05-20T10:58:48;5.18;;;4.65;;
2434;SDS011;1228;51.022;6.764;2023-05-20T11:01:15;5.10;;;4.68;;
2434;SDS011;1228;51.022;6.764;2023-05-20T11:03:43;5.97;;;5.47;;
2434;SDS011;1228;51.022;6.764;2023-05-20T11:06:13;5.53;;;4.80;;
2434;SDS011;1228;51.022;6.764;2023-05-20T11:08:39;4.65;;;4.35;;
2434;SDS011;1228;51.022;6.764;2023-05-20T11:11:05;5.20;;;4.80;;
2434;SDS011;1228;51.022;6.764;2023-05-20T11:13:31;5.47;;;4.97;;
2434;SDS011;1228;51.022;6.764;2023-05-20T11:15:57;4.90;;;4.50;;
2434;SDS011;1228;51.022;6.764;2023-05-20T11:18:23;5.32;;;4.50;;
2434;SDS011;1228;51.022;6.764;2023-05-20T11:20:54;5.28;;;4.60;;
2434;SDS011;1228;51.022;6.764;2023-05-20T11:23:24;5.85;;;5.45;;
2434;SDS011;1228;51.022;6.764;2023-05-20T11:25:51;5.20;;;4.80;;
2434;SDS011;1228;51.022;6.764;2023-05-20T11:28:18;5.00;;;4.60;;
2434;SDS011;1228;51.022;6.764;2023-05-20T11:30:45;6.18;;;5.68;;
2434;SDS011;1228;51.022;6.764;2023-05-20T11:33:12;5.10;;;4.70;;
2434;SDS011;1228;51.022;6.764;2023-05-20T11:35:46;5.60;;;5.07;;
2434;SDS011;1228;51.022;6.764;2023-05-20T11:38:12;6.13;;;5.53;;
2434;SDS011;1228;51.022;6.764;2023-05-20T11:40:42;5.57;;;5.18;;
2434;SDS011;1228;51.022;6.764;2023-05-20T11:43:12;6.13;;;5.53;;
2434;SDS011;1228;51.022;6.764;2023-05-20T11:45:42;5.68;;;5.18;;
2434;SDS011;1228;51.022;6.764;2023-05-20T11:48:10;6.13;;;5.35;;
2434;SDS011;1228;51.022;6.764;2023-05-20T11:50:40;5.75;;;5.25;;
2434;SDS011;1228;51.022;6.764;2023-05-20T11:53:10;6.40;;;5.88;;
2434;SDS011;1228;51.022;6.764;2023-05-20T11:58:20;6.03;;;5.53;;
2434;SDS011;1228;51.022;6.764;2023-05-20T12:00:48;5.35;;;4.95;;
2434;SDS011;1228;51.022;6.764;2023-05-20T12:03:15;6.80;;;6.20;;
2434;SDS011;1228;51.022;6.764;2023-05-20T12:05:41;5.35;;;4.95;;
2434;SDS011;1228;51.022;6.764;2023-05-20T12:08:07;6.53;;;5.78;;
2434;SDS011;1228;51.022;6.764;2023-05-20T12:10:33;6.25;;;5.78;;
2434;SDS011;1228;51.022;6.764;2023-05-20T12:12:59;6.60;;;6.00;;
2434;SDS011;1228;51.022;6.764;2023-05-20T12:15:25;6.45;;;5.95;;
2434;SDS011;1228;51.022;6.764;2023-05-20T12:17:51;6.85;;;6.25;;
2434;SDS011;1228;51.022;6.764;2023-05-20T12:20:20;8.73;;;6.18;;
2434;SDS011;1228;51.022;6.764;2023-05-20T12:22:47;6.03;;;5.53;;
2434;SDS011;1228;51.022;6.764;2023-05-20T12:25:13;6.88;;;6.30;;
2434;SDS011;1228;51.022;6.764;2023-05-20T12:27:41;6.70;;;5.60;;
2434;SDS011;1228;51.022;6.764;2023-05-20T12:30:07;6.68;;;6.15;;
2434;SDS011;1228;51.022;6.764;2023-05-20T12:32:36;7.47;;;6.88;;
2434;SDS011;1228;51.022;6.764;2023-05-20T12:35:02;6.45;;;5.93;;
2434;SDS011;1228;51.022;6.764;2023-05-20T12:37:28;7.68;;;6.88;;
2434;SDS011;1228;51.022;6.764;2023-05-20T12:39:54;7.00;;;6.40;;
2434;SDS011;1228;51.022;6.764;2023-05-20T12:42:20;9.15;;;8.45;;
2434;SDS011;1228;51.022;6.764;2023-05-20T12:44:46;9.80;;;9.00;;
2434;SDS011;1228;51.022;6.764;2023-05-20T12:47:11;7.13;;;6.38;;
2434;SDS011;1228;51.022;6.764;2023-05-20T12:49:37;9.75;;;6.35;;
2434;SDS011;1228;51.022;6.764;2023-05-20T12:52:02;7.45;;;6.80;;
2434;SDS011;1228;51.022;6.764;2023-05-20T12:54:28;7.85;;;7.22;;
2434;SDS011;1228;51.022;6.764;2023-05-20T12:56:54;7.22;;;6.70;;
2434;SDS011;1228;51.022;6.764;2023-05-20T12:59:19;6.55;;;6.05;;
2434;SDS011;1228;51.022;6.764;2023-05-20T13:01:45;7.43;;;6.70;;
2434;SDS011;1228;51.022;6.764;2023-05-20T13:04:12;6.93;;;6.32;;
2434;SDS011;1228;51.022;6.764;2023-05-20T13:06:38;8.77;;;8.07;;
2434;SDS011;1228;51.022;6.764;2023-05-20T13:09:03;7.60;;;7.05;;
2434;SDS011;1228;51.022;6.764;2023-05-20T13:11:29;8.50;;;7.80;;
2434;SDS011;1228;51.022;6.764;2023-05-20T13:13:54;7.90;;;6.95;;
2434;SDS011;1228;51.022;6.764;2023-05-20T13:16:21;8.10;;;7.50;;
2434;SDS011;1228;51.022;6.764;2023-05-20T13:18:47;7.25;;;6.72;;
2434;SDS011;1228;51.022;6.764;2023-05-20T13:21:13;5.70;;;5.30;;
2434;SDS011;1228;51.022;6.764;2023-05-20T13:23:39;6.95;;;6.43;;
2434;SDS011;1228;51.022;6.764;2023-05-20T13:26:05;5.90;;;5.15;;
2434;SDS011;1228;51.022;6.764;2023-05-20T13:28:31;5.50;;;5.10;;
2434;SDS011;1228;51.022;6.764;2023-05-20T13:30:57;5.30;;;4.95;;
2434;SDS011;1228;51.022;6.764;2023-05-20T13:33:22;5.65;;;5.25;;
2434;SDS011;1228;51.022;6.764;2023-05-20T13:35:48;4.72;;;4.35;;
2434;SDS011;1228;51.022;6.764;2023-05-20T13:38:14;5.80;;;5.30;;
2434;SDS011;1228;51.022;6.764;2023-05-20T13:40:40;5.57;;;5.18;;
2434;SDS011;1228;51.022;6.764;2023-05-20T13:43:06;4.85;;;4.55;;
2434;SDS011;1228;51.022;6.764;2023-05-20T13:45:31;5.75;;;5.20;;
2434;SDS011;1228;51.022;6.764;2023-05-20T13:47:57;6.15;;;5.65;;
2434;SDS011;1228;51.022;6.764;2023-05-20T13:50:23;5.30;;;4.90;;
2434;SDS011;1228;51.022;6.764;2023-05-20T13:52:49;5.30;;;4.90;;
2434;SDS011;1228;51.022;6.764;2023-05-20T13:55:15;5.40;;;4.90;;
2434;SDS011;1228;51.022;6.764;2023-05-20T13:57:41;6.80;;;4.75;;
2434;SDS011;1228;51.022;6.764;2023-05-20T14:00:06;6.25;;;5.70;;
2434;SDS011;1228;51.022;6.764;2023-05-20T14:02:33;5.78;;;5.35;;
2434;SDS011;1228;51.022;6.764;2023-05-20T14:04:58;5.57;;;5.18;;
2434;SDS011;1228;51.022;6.764;2023-05-20T14:07:24;6.47;;;5.97;;
2434;SDS011;1228;51.022;6.764;2023-05-20T14:09:50;5.95;;;5.55;;
2434;SDS011;1228;51.022;6.764;2023-05-20T14:12:15;5.78;;;5.38;;
2434;SDS011;1228;51.022;6.764;2023-05-20T14:14:41;5.57;;;5.18;;
2434;SDS011;1228;51.022;6.764;2023-05-20T14:17:07;4.88;;;4.47;;
2434;SDS011;1228;51.022;6.764;2023-05-20T14:19:32;6.22;;;5.82;;
2434;SDS011;1228;51.022;6.764;2023-05-20T14:21:58;5.90;;;5.50;;
2434;SDS011;1228;51.022;6.764;2023-05-20T14:24:25;5.68;;;5.28;;
2434;SDS011;1228;51.022;6.764;2023-05-20T14:26:51;5.15;;;4.75;;
2434;SDS011;1228;51.022;6.764;2023-05-20T14:29:17;6.85;;;5.35;;
2434;SDS011;1228;51.022;6.764;2023-05-20T14:31:42;5.80;;;5.30;;
2434;SDS011;1228;51.022;6.764;2023-05-20T14:34:08;5.80;;;5.40;;
2434;SDS011;1228;51.022;6.764;2023-05-20T14:36:34;5.50;;;5.05;;
2434;SDS011;1228;51.022;6.764;2023-05-20T14:39:00;5.68;;;5.10;;
2434;SDS011;1228;51.022;6.764;2023-05-20T14:41:25;5.93;;;4.90;;
2434;SDS011;1228;51.022;6.764;2023-05-20T14:43:51;5.70;;;5.30;;
2434;SDS011;1228;51.022;6.764;2023-05-20T14:46:16;5.47;;;4.95;;
2434;SDS011;1228;51.022;6.764;2023-05-20T14:48:42;5.10;;;4.80;;
2434;SDS011;1228;51.022;6.764;2023-05-20T14:51:08;5.35;;;4.50;;
2434;SDS011;1228;51.022;6.764;2023-05-20T14:53:33;5.90;;;5.35;;
2434;SDS011;1228;51.022;6.764;2023-05-20T14:55:59;6.45;;;5.95;;
2434;SDS011;1228;51.022;6.764;2023-05-20T14:58:24;5.30;;;4.90;;
2434;SDS011;1228;51.022;6.764;2023-05-20T15:00:51;4.88;;;4.50;;
2434;SDS011;1228;51.022;6.764;2023-05-20T15:03:17;5.40;;;5.00;;
2434;SDS011;1228;51.022;6.764;2023-05-20T15:05:43;5.35;;;4.90;;
2434;SDS011;1228;51.022;6.764;2023-05-20T15:08:08;6.38;;;5.88;;
2434;SDS011;1228;51.022;6.764;2023-05-20T15:10:34;7.25;;;6.63;;
2434;SDS011;1228;51.022;6.764;2023-05-20T15:13:00;8.32;;;6.93;;
2434;SDS011;1228;51.022;6.764;2023-05-20T15:15:26;5.55;;;5.05;;
2434;SDS011;1228;51.022;6.764;2023-05-20T15:17:51;6.20;;;5.60;;
2434;SDS011;1228;51.022;6.764;2023-05-20T15:20:17;7.30;;;5.72;;
2434;SDS011;1228;51.022;6.764;2023-05-20T15:22:43;5.45;;;5.05;;
2434;SDS011;1228;51.022;6.764;2023-05-20T15:25:12;5.85;;;5.40;;